createdAt,value
2019-02-18T00:02:07.856Z,21.97
2019-02-18T00:08:12.349Z,19.35
2019-02-18T00:14:16.534Z,19.10
2019-02-18T00:20:20.790Z,18.37
2019-02-18T00:26:25.049Z,19.35
2019-02-18T00:32:29.562Z,19.80
2019-02-18T00:38:33.872Z,19.07
2019-02-18T00:44:38.091Z,20.32
2019-02-18T00:50:42.301Z,17.40
2019-02-18T00:56:46.610Z,18.02
2019-02-18T01:02:50.813Z,17.52
2019-02-18T01:08:55.149Z,17.27
2019-02-18T01:14:59.377Z,16.65
2019-02-18T01:21:06.541Z,16.40
2019-02-18T01:27:10.761Z,17.30
2019-02-18T01:33:14.950Z,15.83
2019-02-18T01:39:19.184Z,17.60
2019-02-18T01:45:23.374Z,19.87
2019-02-18T01:51:27.573Z,16.93
2019-02-18T01:57:31.784Z,16.75
2019-02-18T02:03:36.051Z,17.10
2019-02-18T02:09:40.249Z,16.63
2019-02-18T02:15:44.767Z,16.90
2019-02-18T02:21:48.996Z,17.87
2019-02-18T02:27:53.251Z,16.83
2019-02-18T02:33:57.479Z,18.50
2019-02-18T02:40:02.475Z,17.42
2019-02-18T02:46:06.726Z,21.67
2019-02-18T02:52:10.906Z,18.07
2019-02-18T02:58:15.112Z,18.60
2019-02-18T03:04:19.325Z,18.63
2019-02-18T03:10:23.670Z,19.40
2019-02-18T03:16:27.898Z,19.43
2019-02-18T03:22:32.274Z,18.63
2019-02-18T03:29:18.304Z,16.93
2019-02-18T03:35:22.609Z,16.77
2019-02-18T03:41:26.921Z,17.17
2019-02-18T03:47:31.215Z,19.50
2019-02-18T03:53:35.398Z,18.70
2019-02-18T03:59:39.638Z,58.13
2019-02-18T04:05:43.953Z,21.20
2019-02-18T04:11:48.261Z,16.87
2019-02-18T04:17:52.615Z,19.00
2019-02-18T04:23:56.838Z,18.10
2019-02-18T04:30:01.081Z,21.27
2019-02-18T04:36:05.383Z,26.53
2019-02-18T04:42:09.592Z,21.40
2019-02-18T04:48:13.946Z,17.97
2019-02-18T04:54:18.131Z,19.67
2019-02-18T05:00:22.567Z,19.70
2019-02-18T05:06:26.758Z,17.87
2019-02-18T05:12:31.149Z,21.73
2019-02-18T05:18:35.423Z,20.10
2019-02-18T05:24:39.683Z,22.90
2019-02-18T05:30:43.877Z,22.23
2019-02-18T05:36:49.737Z,23.63
2019-02-18T05:42:54.030Z,20.57
2019-02-18T05:48:58.225Z,19.43
2019-02-18T05:55:02.513Z,29.30
2019-02-18T06:01:06.805Z,33.47
2019-02-18T06:07:11.229Z,30.17
2019-02-18T06:13:15.555Z,27.33
2019-02-18T06:19:20.013Z,19.60
2019-02-18T06:25:24.353Z,24.33
2019-02-18T06:31:28.649Z,23.00
2019-02-18T06:37:32.898Z,18.97
2019-02-18T06:43:37.190Z,26.07
2019-02-18T06:49:41.574Z,23.50
2019-02-18T06:55:45.779Z,25.27
2019-02-18T07:02:00.406Z,27.13
2019-02-18T07:08:22.222Z,23.80
2019-02-18T07:14:26.540Z,26.67
2019-02-18T07:20:30.833Z,21.20
2019-02-18T07:26:35.049Z,20.73
2019-02-18T07:32:39.249Z,22.57
2019-02-18T07:38:43.462Z,21.03
2019-02-18T07:44:47.760Z,23.80
2019-02-18T07:50:52.052Z,29.83
2019-02-18T07:56:56.408Z,22.97
2019-02-18T08:03:00.602Z,20.77
2019-02-18T08:09:06.008Z,27.30
2019-02-18T08:15:10.217Z,24.45
2019-02-18T08:21:14.411Z,22.80
2019-02-18T08:27:18.630Z,22.10
2019-02-18T08:33:23.003Z,20.23
2019-02-18T08:39:27.286Z,22.00
2019-02-18T08:45:31.572Z,21.35
2019-02-18T08:51:35.801Z,17.90
2019-02-18T08:57:40.075Z,19.32
2019-02-18T09:03:44.424Z,17.45
2019-02-18T09:09:51.142Z,19.35
2019-02-18T09:16:00.066Z,21.40
2019-02-18T09:22:19.598Z,20.72
2019-02-18T09:28:23.930Z,21.37
2019-02-18T09:34:28.279Z,23.50
2019-02-18T09:40:32.562Z,19.02
2019-02-18T09:46:36.805Z,22.22
2019-02-18T09:52:41.093Z,22.10
2019-02-18T09:58:45.351Z,22.25
2019-02-18T10:04:49.629Z,21.90
2019-02-18T10:10:56.164Z,22.65
2019-02-18T10:16:59.831Z,21.60
2019-02-18T10:23:04.032Z,21.97
2019-02-18T10:29:08.358Z,19.52
2019-02-18T10:35:12.590Z,18.37
2019-02-18T10:41:19.224Z,21.48
2019-02-18T10:47:22.816Z,24.92
2019-02-18T10:53:27.288Z,23.18
2019-02-18T10:59:31.691Z,24.37
2019-02-18T11:05:35.888Z,22.00
2019-02-18T11:11:40.197Z,24.65
2019-02-18T11:17:44.389Z,21.52
2019-02-18T11:23:48.699Z,23.22
2019-02-18T11:29:52.900Z,22.82
2019-02-18T11:35:57.110Z,23.52
2019-02-18T11:42:01.468Z,17.92
2019-02-18T11:48:08.362Z,18.73
2019-02-18T11:54:12.858Z,23.20
2019-02-18T12:00:17.207Z,18.60
2019-02-18T12:06:21.567Z,18.00
2019-02-18T12:12:25.930Z,18.60
2019-02-18T12:18:30.198Z,19.20
2019-02-18T12:24:34.485Z,20.00
2019-02-18T12:30:38.702Z,17.30
2019-02-18T12:36:43.000Z,16.95
2019-02-18T12:42:47.649Z,15.90
2019-02-18T12:48:51.890Z,19.05
2019-02-18T12:54:56.243Z,21.52
2019-02-18T13:01:00.579Z,18.02
2019-02-18T13:07:04.948Z,17.00
2019-02-18T13:13:09.282Z,16.60
2019-02-18T13:19:14.099Z,20.05
2019-02-18T13:25:18.483Z,19.05
2019-02-18T13:31:23.141Z,18.92
2019-02-18T13:37:27.520Z,22.13
2019-02-18T13:43:34.943Z,17.57
2019-02-18T13:49:39.492Z,14.70
2019-02-18T13:55:43.775Z,17.52
2019-02-18T14:01:48.050Z,16.73
2019-02-18T14:07:52.369Z,15.48
2019-02-18T14:13:56.970Z,15.60
2019-02-18T14:20:01.334Z,17.20
2019-02-18T14:26:06.090Z,16.00
2019-02-18T14:32:10.431Z,19.90
2019-02-18T14:38:14.740Z,15.58
2019-02-18T14:44:19.096Z,16.42
2019-02-18T14:50:23.390Z,16.35
2019-02-18T14:56:27.751Z,14.38
2019-02-18T15:02:32.129Z,18.55
2019-02-18T15:08:36.622Z,16.17
2019-02-18T15:14:42.683Z,17.98
2019-02-18T15:20:47.028Z,16.77
2019-02-18T15:26:51.384Z,21.23
2019-02-18T15:32:55.622Z,18.37
2019-02-18T15:38:59.898Z,19.35
2019-02-18T15:45:04.360Z,17.12
2019-02-18T15:51:08.741Z,18.45
2019-02-18T15:57:13.326Z,18.77
2019-02-18T16:03:17.740Z,17.77
2019-02-18T16:09:22.055Z,15.78
2019-02-18T16:15:26.322Z,14.45
2019-02-18T16:21:30.750Z,15.60
2019-02-18T16:27:35.011Z,16.37
2019-02-18T16:33:39.327Z,16.32
2019-02-18T16:39:43.621Z,16.48
2019-02-18T16:45:47.931Z,15.50
2019-02-18T16:51:52.725Z,15.48
2019-02-18T16:57:57.083Z,17.92
2019-02-18T17:04:01.335Z,7.05
2019-02-18T17:10:05.641Z,20.62
2019-02-18T17:16:09.920Z,22.45
2019-02-18T17:22:14.294Z,22.15
2019-02-18T17:28:18.571Z,22.75
2019-02-18T17:34:22.867Z,26.90
2019-02-18T17:40:27.159Z,27.87
2019-02-18T17:46:31.476Z,25.23
2019-02-18T17:52:35.818Z,57.33
2019-02-18T17:58:40.126Z,34.00
2019-02-18T18:04:44.787Z,23.87
2019-02-18T18:10:49.128Z,32.58
2019-02-18T18:16:53.595Z,37.28
2019-02-18T18:22:57.880Z,35.13
2019-02-18T18:29:02.201Z,39.83
2019-02-18T18:35:08.821Z,38.63
2019-02-18T18:41:13.126Z,36.30
2019-02-18T18:47:17.400Z,39.35
2019-02-18T18:53:21.807Z,41.13
2019-02-18T18:59:26.138Z,74.40
2019-02-18T19:05:30.904Z,40.98
2019-02-18T19:11:35.479Z,40.23
2019-02-18T19:17:39.721Z,100.45
2019-02-18T19:23:44.169Z,37.63
2019-02-18T19:29:48.454Z,50.90
2019-02-18T19:35:52.655Z,79.90
2019-02-18T19:41:56.859Z,89.20
2019-02-18T19:48:01.237Z,65.50
2019-02-18T19:54:05.604Z,63.48
2019-02-18T20:00:11.330Z,52.80
2019-02-18T20:06:15.609Z,49.53
2019-02-18T20:12:19.803Z,48.20
2019-02-18T20:18:24.095Z,45.67
2019-02-18T20:24:28.673Z,41.63
2019-02-18T20:30:32.918Z,37.38
2019-02-18T20:36:37.306Z,31.07
2019-02-18T20:42:41.628Z,28.60
2019-02-18T20:48:45.919Z,25.68
2019-02-18T20:54:50.609Z,21.73
2019-02-18T21:00:54.894Z,26.23
2019-02-18T21:06:59.178Z,25.40
2019-02-18T21:13:03.461Z,24.57
2019-02-18T21:19:07.764Z,23.85
2019-02-18T21:25:12.686Z,23.55
2019-02-18T21:31:17.327Z,21.77
2019-02-18T21:37:21.602Z,21.33
2019-02-18T21:43:25.976Z,15.28
2019-02-18T21:49:30.506Z,22.02
2019-02-18T21:55:34.740Z,17.75
2019-02-18T22:01:39.084Z,22.70
2019-02-18T22:07:43.613Z,18.92
2019-02-18T22:13:47.817Z,18.07
2019-02-18T22:19:52.130Z,19.45
2019-02-18T22:25:56.425Z,17.05
2019-02-18T22:32:00.769Z,14.98
2019-02-18T22:38:05.047Z,17.05
2019-02-18T22:44:09.474Z,11.43
2019-02-18T22:50:13.959Z,11.43
2019-02-18T22:56:18.223Z,9.48
2019-02-18T23:02:22.507Z,9.63
2019-02-18T23:08:26.767Z,9.58
2019-02-18T23:14:31.171Z,10.40
2019-02-18T23:20:35.369Z,10.45
2019-02-18T23:26:39.583Z,13.30
2019-02-18T23:32:43.816Z,7.47
2019-02-18T23:38:48.468Z,10.85
2019-02-18T23:44:59.008Z,7.87
2019-02-18T23:50:58.586Z,10.88
2019-02-18T23:57:02.968Z,7.05
